sensor_id;sensor_type;location;lat;lon;timestamp;pressure;altitude;pressure_sealevel;temperature;humidity
8573;BME280;4324;42.012;24.872;2023-03-16T00:01:03;97801.47;;;10.50;62.75
8573;BME280;4324;42.012;24.872;2023-03-16T00:03:30;97814.72;;;10.56;62.77
8573;BME280;4324;42.012;24.872;2023-03-16T00:05:57;97812.28;;;10.55;62.69
8573;BME280;4324;42.012;24.872;2023-03-16T00:08:24;97809.84;;;10.53;62.76
8573;BME280;4324;42.012;24.872;2023-03-16T00:10:52;97809.44;;;10.56;62.81
8573;BME280;4324;42.012;24.872;2023-03-16T00:13:20;97813.09;;;10.55;62.76
8573;BME280;4324;42.012;24.872;2023-03-16T00:15:49;97804.13;;;10.56;62.77
8573;BME280;4324;42.012;24.872;2023-03-16T00:18:18;97714.22;;;10.00;62.80
8573;BME280;4324;42.012;24.872;2023-03-16T00:20:49;97811.69;;;10.59;62.75
8573;BME280;4324;42.012;24.872;2023-03-16T00:23:16;97794.13;;;10.52;62.73
8573;BME280;4324;42.012;24.872;2023-03-16T00:25:43;97815.78;;;10.62;62.75
8573;BME280;4324;42.012;24.872;2023-03-16T00:28:10;97804.75;;;10.58;62.71
8573;BME280;4324;42.012;24.872;2023-03-16T00:30:38;97806.78;;;10.56;62.80
8573;BME280;4324;42.012;24.872;2023-03-16T00:33:05;97813.09;;;10.55;62.58
8573;BME280;4324;42.012;24.872;2023-03-16T00:35:33;97804.97;;;10.57;62.68
8573;BME280;4324;42.012;24.872;2023-03-16T00:38:00;97807.78;;;10.55;62.68
8573;BME280;4324;42.012;24.872;2023-03-16T00:40:27;97789.81;;;10.44;62.61
8573;BME280;4324;42.012;24.872;2023-03-16T00:42:55;97818.00;;;10.58;62.65
8573;BME280;4324;42.012;24.872;2023-03-16T00:45:21;97802.06;;;10.52;62.74
8573;BME280;4324;42.012;24.872;2023-03-16T00:47:49;97824.50;;;10.56;62.59
8573;BME280;4324;42.012;24.872;2023-03-16T00:50:18;97811.84;;;10.51;62.68
8573;BME280;4324;42.012;24.872;2023-03-16T00:52:48;97824.06;;;10.52;62.59
8573;BME280;4324;42.012;24.872;2023-03-16T00:55:18;97821.03;;;10.55;62.61
8573;BME280;4324;42.012;24.872;2023-03-16T00:57:44;97826.75;;;10.59;62.76
8573;BME280;4324;42.012;24.872;2023-03-16T01:00:12;97820.44;;;10.53;62.75
8573;BME280;4324;42.012;24.872;2023-03-16T01:02:41;97820.00;;;10.56;62.90
8573;BME280;4324;42.012;24.872;2023-03-16T01:05:09;97802.28;;;10.50;62.86
8573;BME280;4324;42.012;24.872;2023-03-16T01:07:37;97816.75;;;10.54;62.77
8573;BME280;4324;42.012;24.872;2023-03-16T01:10:07;97819.03;;;10.57;62.87
8573;BME280;4324;42.012;24.872;2023-03-16T01:12:34;97818.44;;;10.62;62.73
8573;BME280;4324;42.012;24.872;2023-03-16T01:15:01;97820.44;;;10.60;62.93
8573;BME280;4324;42.012;24.872;2023-03-16T01:17:28;97834.50;;;10.60;62.87
8573;BME280;4324;42.012;24.872;2023-03-16T01:19:59;97830.66;;;10.63;62.92
8573;BME280;4324;42.012;24.872;2023-03-16T01:22:26;97828.19;;;10.61;62.82
8573;BME280;4324;42.012;24.872;2023-03-16T01:24:53;97831.84;;;10.60;62.83
8573;BME280;4324;42.012;24.872;2023-03-16T01:27:21;97831.84;;;10.60;62.90
8573;BME280;4324;42.012;24.872;2023-03-16T01:29:50;97835.72;;;10.58;62.89
8573;BME280;4324;42.012;24.872;2023-03-16T01:32:17;97830.00;;;10.54;62.84
8573;BME280;4324;42.012;24.872;2023-03-16T01:34:44;97826.09;;;10.50;63.07
8573;BME280;4324;42.012;24.872;2023-03-16T01:37:11;97821.41;;;10.52;63.18
8573;BME280;4324;42.012;24.872;2023-03-16T01:39:37;97829.41;;;10.59;63.12
8573;BME280;4324;42.012;24.872;2023-03-16T01:42:04;97806.16;;;10.54;63.15
8573;BME280;4324;42.012;24.872;2023-03-16T01:44:51;97819.25;;;10.62;63.53
8573;BME280;4324;42.012;24.872;2023-03-16T01:47:19;97821.34;;;10.74;63.64
8573;BME280;4324;42.012;24.872;2023-03-16T01:49:48;97824.63;;;10.76;63.91
8573;BME280;4324;42.012;24.872;2023-03-16T01:52:18;97817.22;;;10.64;63.91
8573;BME280;4324;42.012;24.872;2023-03-16T01:54:49;97822.97;;;10.75;63.81
8573;BME280;4324;42.012;24.872;2023-03-16T01:57:19;97834.38;;;10.75;63.77
8573;BME280;4324;42.012;24.872;2023-03-16T01:59:49;97819.25;;;10.62;63.61
8573;BME280;4324;42.012;24.872;2023-03-16T02:02:22;97837.84;;;10.76;63.83
8573;BME280;4324;42.012;24.872;2023-03-16T02:04:52;97837.00;;;10.75;64.36
8573;BME280;4324;42.012;24.872;2023-03-16T02:07:22;97828.69;;;10.72;64.74
8573;BME280;4324;42.012;24.872;2023-03-16T02:09:53;97847.44;;;10.77;65.06
8573;BME280;4324;42.012;24.872;2023-03-16T02:12:21;97844.78;;;10.77;65.19
8573;BME280;4324;42.012;24.872;2023-03-16T02:14:49;97849.06;;;10.78;65.10
8573;BME280;4324;42.012;24.872;2023-03-16T02:17:20;97851.53;;;10.79;65.01
8573;BME280;4324;42.012;24.872;2023-03-16T02:19:54;97853.31;;;10.79;64.97
8573;BME280;4324;42.012;24.872;2023-03-16T02:22:25;97845.16;;;10.74;64.90
8573;BME280;4324;42.012;24.872;2023-03-16T02:24:53;97858.03;;;10.77;64.58
8573;BME280;4324;42.012;24.872;2023-03-16T02:27:25;97860.03;;;10.75;64.78
8573;BME280;4324;42.012;24.872;2023-03-16T02:30:06;97860.44;;;10.72;65.44
8573;BME280;4324;42.012;24.872;2023-03-16T02:32:35;97861.63;;;10.69;65.63
8573;BME280;4324;42.012;24.872;2023-03-16T02:35:04;97873.03;;;10.70;65.58
8573;BME280;4324;42.012;24.872;2023-03-16T02:37:31;97873.44;;;10.66;65.52
8573;BME280;4324;42.012;24.872;2023-03-16T02:39:59;97844.81;;;10.49;65.63
8573;BME280;4324;42.012;24.872;2023-03-16T02:42:27;97856.50;;;10.61;65.58
8573;BME280;4324;42.012;24.872;2023-03-16T02:44:56;97859.72;;;10.56;65.66
8573;BME280;4324;42.012;24.872;2023-03-16T02:47:32;97865.66;;;10.58;65.80
8573;BME280;4324;42.012;24.872;2023-03-16T02:50:00;97824.53;;;10.28;65.89
8573;BME280;4324;42.012;24.872;2023-03-16T02:52:31;97868.28;;;10.58;65.64
8573;BME280;4324;42.012;24.872;2023-03-16T02:54:58;97865.66;;;10.58;65.64
8573;BME280;4324;42.012;24.872;2023-03-16T02:57:25;97878.28;;;10.63;65.43
8573;BME280;4324;42.012;24.872;2023-03-16T02:59:52;97873.00;;;10.63;65.51
8573;BME280;4324;42.012;24.872;2023-03-16T03:02:19;97888.88;;;10.63;65.49
8573;BME280;4324;42.012;24.872;2023-03-16T03:04:48;97879.09;;;10.57;65.38
8573;BME280;4324;42.012;24.872;2023-03-16T03:07:19;97883.09;;;10.53;65.27
8573;BME280;4324;42.012;24.872;2023-03-16T03:09:46;97892.50;;;10.55;65.47
8573;BME280;4324;42.012;24.872;2023-03-16T03:12:13;97880.44;;;10.46;65.58
8573;BME280;4324;42.012;24.872;2023-03-16T03:14:40;97895.13;;;10.55;65.41
8573;BME280;4324;42.012;24.872;2023-03-16T03:17:10;97892.41;;;10.42;65.45
8573;BME280;4324;42.012;24.872;2023-03-16T03:19:37;97888.63;;;10.30;65.80
8573;BME280;4324;42.012;24.872;2023-03-16T03:22:06;97920.81;;;10.33;66.39
8573;BME280;4324;42.012;24.872;2023-03-16T03:24:34;97915.28;;;10.28;66.75
8573;BME280;4324;42.012;24.872;2023-03-16T03:27:01;97923.34;;;10.20;66.60
8573;BME280;4324;42.012;24.872;2023-03-16T03:29:32;97919.38;;;10.09;66.41
8573;BME280;4324;42.012;24.872;2023-03-16T03:32:00;97920.13;;;10.03;66.56
8573;BME280;4324;42.012;24.872;2023-03-16T03:34:27;97922.53;;;9.98;66.67
8573;BME280;4324;42.012;24.872;2023-03-16T03:36:54;97917.59;;;9.95;66.90
8573;BME280;4324;42.012;24.872;2023-03-16T03:39:22;97926.47;;;9.87;66.65
8573;BME280;4324;42.012;24.872;2023-03-16T03:41:50;97931.69;;;9.81;66.71
8573;BME280;4324;42.012;24.872;2023-03-16T03:44:19;97914.03;;;9.66;66.95
8573;BME280;4324;42.012;24.872;2023-03-16T03:46:46;97916.06;;;9.64;67.15
8573;BME280;4324;42.012;24.872;2023-03-16T03:49:13;97908.66;;;9.60;67.52
8573;BME280;4324;42.012;24.872;2023-03-16T03:51:40;97938.47;;;9.68;67.17
8573;BME280;4324;42.012;24.872;2023-03-16T03:54:08;97928.63;;;9.62;67.29
8573;BME280;4324;42.012;24.872;2023-03-16T03:56:36;97941.84;;;9.62;67.47
8573;BME280;4324;42.012;24.872;2023-03-16T03:59:03;97936.31;;;9.57;67.81
8573;BME280;4324;42.012;24.872;2023-03-16T04:01:30;97933.75;;;9.49;67.69
8573;BME280;4324;42.012;24.872;2023-03-16T04:03:56;97941.50;;;9.51;67.61
8573;BME280;4324;42.012;24.872;2023-03-16T04:06:23;97934.97;;;9.47;68.01
8573;BME280;4324;42.012;24.872;2023-03-16T04:08:50;97960.56;;;9.46;68.21
8573;BME280;4324;42.012;24.872;2023-03-16T04:11:18;97950.53;;;9.41;67.86
8573;BME280;4324;42.012;24.872;2023-03-16T04:13:49;97938.44;;;9.32;67.80
8573;BME280;4324;42.012;24.872;2023-03-16T04:16:16;97963.28;;;9.38;68.03
8573;BME280;4324;42.012;24.872;2023-03-16T04:18:43;97953.47;;;9.32;68.41
8573;BME280;4324;42.012;24.872;2023-03-16T04:21:13;97956.66;;;9.27;68.50
8573;BME280;4324;42.012;24.872;2023-03-16T04:23:41;97952.94;;;9.21;68.10
8573;BME280;4324;42.012;24.872;2023-03-16T04:26:08;97951.91;;;9.23;67.97
8573;BME280;4324;42.012;24.872;2023-03-16T04:28:35;97956.22;;;9.24;67.88
8573;BME280;4324;42.012;24.872;2023-03-16T04:31:05;97976.34;;;9.25;67.71
8573;BME280;4324;42.012;24.872;2023-03-16T04:33:32;97977.81;;;9.27;68.50
8573;BME280;4324;42.012;24.872;2023-03-16T04:36:00;97973.69;;;9.25;68.31
8573;BME280;4324;42.012;24.872;2023-03-16T04:38:28;97978.97;;;9.25;68.47
8573;BME280;4324;42.012;24.872;2023-03-16T04:40:55;97981.78;;;9.23;68.46
8573;BME280;4324;42.012;24.872;2023-03-16T04:43:22;98003.31;;;9.20;68.29
8573;BME280;4324;42.012;24.872;2023-03-16T04:45:49;97994.53;;;9.19;68.40
8573;BME280;4324;42.012;24.872;2023-03-16T04:48:17;97987.53;;;9.12;68.82
8573;BME280;4324;42.012;24.872;2023-03-16T04:50:46;97997.91;;;9.13;68.46
8573;BME280;4324;42.012;24.872;2023-03-16T04:53:13;98001.56;;;9.12;68.85
8573;BME280;4324;42.012;24.872;2023-03-16T04:55:40;98008.84;;;9.10;68.65
8573;BME280;4324;42.012;24.872;2023-03-16T04:58:07;98018.94;;;9.07;68.12
8573;BME280;4324;42.012;24.872;2023-03-16T05:00:55;98024.78;;;9.02;68.10
8573;BME280;4324;42.012;24.872;2023-03-16T05:03:27;98013.47;;;9.08;68.14
8573;BME280;4324;42.012;24.872;2023-03-16T05:05:54;98015.28;;;8.93;68.92
8573;BME280;4324;42.012;24.872;2023-03-16T05:08:21;98024.66;;;8.95;68.44
8573;BME280;4324;42.012;24.872;2023-03-16T05:10:55;98021.66;;;8.99;68.24
8573;BME280;4324;42.012;24.872;2023-03-16T05:13:27;98025.09;;;8.84;68.03
8573;BME280;4324;42.012;24.872;2023-03-16T05:15:54;98036.19;;;8.80;67.96
8573;BME280;4324;42.012;24.872;2023-03-16T05:18:28;98036.13;;;8.88;67.58
8573;BME280;4324;42.012;24.872;2023-03-16T05:20:58;98049.13;;;8.89;67.71
8573;BME280;4324;42.012;24.872;2023-03-16T05:23:25;98047.97;;;8.92;67.91
8573;BME280;4324;42.012;24.872;2023-03-16T05:25:52;98039.75;;;8.87;67.81
8573;BME280;4324;42.012;24.872;2023-03-16T05:28:18;98044.69;;;8.90;67.60
8573;BME280;4324;42.012;24.872;2023-03-16T05:30:45;98054.59;;;8.88;67.52
8573;BME280;4324;42.012;24.872;2023-03-16T05:33:12;98061.03;;;8.85;67.34
8573;BME280;4324;42.012;24.872;2023-03-16T05:35:41;98048.50;;;8.87;67.17
8573;BME280;4324;42.012;24.872;2023-03-16T05:38:08;98063.19;;;8.90;67.18
8573;BME280;4324;42.012;24.872;2023-03-16T05:40:35;98053.94;;;8.86;66.85
8573;BME280;4324;42.012;24.872;2023-03-16T05:43:02;98032.84;;;8.63;66.77
8573;BME280;4324;42.012;24.872;2023-03-16T05:45:32;98055.66;;;8.79;66.80
8573;BME280;4324;42.012;24.872;2023-03-16T05:47:59;98031.84;;;8.64;66.64
8573;BME280;4324;42.012;24.872;2023-03-16T05:50:30;98084.69;;;8.79;66.29
8573;BME280;4324;42.012;24.872;2023-03-16T05:52:58;98060.94;;;8.79;66.13
8573;BME280;4324;42.012;24.872;2023-03-16T05:55:25;98107.13;;;8.83;66.03
8573;BME280;4324;42.012;24.872;2023-03-16T05:57:51;98089.56;;;8.90;65.96
8573;BME280;4324;42.012;24.872;2023-03-16T06:00:19;98100.47;;;8.87;66.35
8573;BME280;4324;42.012;24.872;2023-03-16T06:02:49;98096.28;;;8.92;65.97
8573;BME280;4324;42.012;24.872;2023-03-16T06:05:18;98099.19;;;8.83;65.84
8573;BME280;4324;42.012;24.872;2023-03-16T06:07:46;98115.78;;;8.91;65.82
8573;BME280;4324;42.012;24.872;2023-03-16T06:10:16;98098.53;;;8.81;65.76
8573;BME280;4324;42.012;24.872;2023-03-16T06:12:44;98112.13;;;8.92;65.78
8573;BME280;4324;42.012;24.872;2023-03-16T06:15:11;98122.69;;;8.92;65.88
8573;BME280;4324;42.012;24.872;2023-03-16T06:17:41;98117.06;;;8.95;65.98
8573;BME280;4324;42.012;24.872;2023-03-16T06:20:10;98137.03;;;8.98;65.68
8573;BME280;4324;42.012;24.872;2023-03-16T06:22:38;98105.72;;;8.72;65.26
8573;BME280;4324;42.012;24.872;2023-03-16T06:25:22;98097.59;;;8.73;64.72
8573;BME280;4324;42.012;24.872;2023-03-16T06:27:54;98137.03;;;8.98;64.67
8573;BME280;4324;42.012;24.872;2023-03-16T06:30:24;98138.31;;;9.02;64.75
8573;BME280;4324;42.012;24.872;2023-03-16T06:32:52;98157.06;;;9.07;64.33
8573;BME280;4324;42.012;24.872;2023-03-16T06:35:21;98156.06;;;9.08;64.15
8573;BME280;4324;42.012;24.872;2023-03-16T06:37:50;98153.34;;;9.02;64.03
8573;BME280;4324;42.012;24.872;2023-03-16T06:40:19;98170.94;;;9.09;64.31
8573;BME280;4324;42.012;24.872;2023-03-16T06:42:46;98169.94;;;9.10;63.93
8573;BME280;4324;42.012;24.872;2023-03-16T06:45:13;98115.72;;;8.77;63.61
8573;BME280;4324;42.012;24.872;2023-03-16T06:47:41;98201.44;;;9.12;63.62
8573;BME280;4324;42.012;24.872;2023-03-16T06:50:09;98201.91;;;9.15;63.37
8573;BME280;4324;42.012;24.872;2023-03-16T06:52:38;98196.28;;;9.18;63.83
8573;BME280;4324;42.012;24.872;2023-03-16T06:55:06;98196.59;;;9.24;65.07
8573;BME280;4324;42.012;24.872;2023-03-16T06:57:35;98202.63;;;9.09;64.39
8573;BME280;4324;42.012;24.872;2023-03-16T07:00:03;98200.84;;;9.25;64.01
8573;BME280;4324;42.012;24.872;2023-03-16T07:02:31;98212.13;;;9.18;63.11
8573;BME280;4324;42.012;24.872;2023-03-16T07:05:00;98217.34;;;9.27;62.93
8573;BME280;4324;42.012;24.872;2023-03-16T07:07:27;98155.72;;;8.88;63.09
8573;BME280;4324;42.012;24.872;2023-03-16T07:09:54;98229.66;;;9.34;63.42
8573;BME280;4324;42.012;24.872;2023-03-16T07:12:21;98218.47;;;9.32;62.80
8573;BME280;4324;42.012;24.872;2023-03-16T07:14:49;98246.34;;;9.35;62.59
8573;BME280;4324;42.012;24.872;2023-03-16T07:17:16;98227.88;;;9.35;62.54
8573;BME280;4324;42.012;24.872;2023-03-16T07:19:44;98216.84;;;9.31;61.98
8573;BME280;4324;42.012;24.872;2023-03-16T07:22:12;98221.72;;;9.34;61.82
8573;BME280;4324;42.012;24.872;2023-03-16T07:24:49;98226.78;;;9.44;62.12
8573;BME280;4324;42.012;24.872;2023-03-16T07:27:20;98246.75;;;9.47;62.47
8573;BME280;4324;42.012;24.872;2023-03-16T07:29:50;98249.56;;;9.45;61.73
8573;BME280;4324;42.012;24.872;2023-03-16T07:32:17;98241.34;;;9.40;61.66
8573;BME280;4324;42.012;24.872;2023-03-16T07:37:52;98251.50;;;9.51;63.49
8573;BME280;4324;42.012;24.872;2023-03-16T07:40:19;98243.94;;;9.48;61.93
8573;BME280;4324;42.012;24.872;2023-03-16T07:42:46;98240.66;;;9.46;62.78
8573;BME280;4324;42.012;24.872;2023-03-16T07:45:15;98252.41;;;9.43;61.56
8573;BME280;4324;42.012;24.872;2023-03-16T07:47:43;98271.06;;;9.42;61.17
8573;BME280;4324;42.012;24.872;2023-03-16T07:50:10;98256.75;;;9.36;61.22
8573;BME280;4324;42.012;24.872;2023-03-16T07:52:37;98268.59;;;9.40;61.29
8573;BME280;4324;42.012;24.872;2023-03-16T07:55:05;98255.63;;;9.31;61.27
8573;BME280;4324;42.012;24.872;2023-03-16T07:57:32;98258.97;;;9.25;61.81
8573;BME280;4324;42.012;24.872;2023-03-16T07:59:59;98288.09;;;9.39;61.92
8573;BME280;4324;42.012;24.872;2023-03-16T08:02:31;98274.69;;;9.41;62.25
8573;BME280;4324;42.012;24.872;2023-03-16T08:04:58;98265.78;;;9.42;62.13
8573;BME280;4324;42.012;24.872;2023-03-16T08:07:28;98277.81;;;9.44;61.61
8573;BME280;4324;42.012;24.872;2023-03-16T08:09:59;98246.88;;;9.30;60.85
8573;BME280;4324;42.012;24.872;2023-03-16T08:12:26;98252.94;;;9.39;60.76
8573;BME280;4324;42.012;24.872;2023-03-16T08:14:53;98270.13;;;9.58;61.20
8573;BME280;4324;42.012;24.872;2023-03-16T08:17:20;98245.06;;;9.54;61.97
8573;BME280;4324;42.012;24.872;2023-03-16T08:19:51;98213.56;;;9.44;62.62
8573;BME280;4324;42.012;24.872;2023-03-16T08:22:21;98250.03;;;9.72;61.69
8573;BME280;4324;42.012;24.872;2023-03-16T08:24:48;98237.50;;;9.65;61.47
8573;BME280;4324;42.012;24.872;2023-03-16T08:27:15;98281.59;;;9.88;60.75
8573;BME280;4324;42.012;24.872;2023-03-16T08:29:45;98249.59;;;9.83;60.24
8573;BME280;4324;42.012;24.872;2023-03-16T08:32:12;98264.19;;;9.93;61.16
8573;BME280;4324;42.012;24.872;2023-03-16T08:35:00;98227.66;;;9.59;61.63
8573;BME280;4324;42.012;24.872;2023-03-16T08:37:27;98259.25;;;9.76;60.52
8573;BME280;4324;42.012;24.872;2023-03-16T08:39:54;98294.16;;;9.86;60.52
8573;BME280;4324;42.012;24.872;2023-03-16T08:42:22;98261.88;;;9.76;60.67
8573;BME280;4324;42.012;24.872;2023-03-16T08:44:49;98297.09;;;9.91;62.46
8573;BME280;4324;42.012;24.872;2023-03-16T08:47:19;98283.59;;;9.86;62.91
8573;BME280;4324;42.012;24.872;2023-03-16T08:49:46;98271.09;;;9.80;62.12
8573;BME280;4324;42.012;24.872;2023-03-16T08:52:15;98281.75;;;9.72;61.29
8573;BME280;4324;42.012;24.872;2023-03-16T08:54:42;98231.59;;;9.40;61.31
8573;BME280;4324;42.012;24.872;2023-03-16T08:57:10;98296.28;;;9.67;60.73
8573;BME280;4324;42.012;24.872;2023-03-16T08:59:36;98287.09;;;9.63;60.38
8573;BME280;4324;42.012;24.872;2023-03-16T09:02:10;98286.09;;;9.64;60.47
8573;BME280;4324;42.012;24.872;2023-03-16T09:04:38;98278.69;;;9.60;60.79
8573;BME280;4324;42.012;24.872;2023-03-16T09:07:05;98287.91;;;9.64;60.35
8573;BME280;4324;42.012;24.872;2023-03-16T09:09:34;98318.16;;;9.61;60.42
8573;BME280;4324;42.012;24.872;2023-03-16T09:12:02;98290.19;;;9.67;60.09
8573;BME280;4324;42.012;24.872;2023-03-16T09:14:30;98280.81;;;9.64;61.03
8573;BME280;4324;42.012;24.872;2023-03-16T09:16:58;98314.69;;;9.84;62.16
8573;BME280;4324;42.012;24.872;2023-03-16T09:19:25;98311.47;;;9.74;60.58
8573;BME280;4324;42.012;24.872;2023-03-16T09:21:52;98309.94;;;9.79;59.73
8573;BME280;4324;42.012;24.872;2023-03-16T09:24:19;98308.75;;;9.82;60.16
8573;BME280;4324;42.012;24.872;2023-03-16T09:26:47;98322.91;;;9.89;60.23
8573;BME280;4324;42.012;24.872;2023-03-16T09:29:15;98307.69;;;9.91;60.68
8573;BME280;4324;42.012;24.872;2023-03-16T09:31:43;98292.53;;;9.85;60.73
8573;BME280;4324;42.012;24.872;2023-03-16T09:34:12;98290.81;;;9.92;61.41
8573;BME280;4324;42.012;24.872;2023-03-16T09:36:40;98301.19;;;9.93;61.60
8573;BME280;4324;42.012;24.872;2023-03-16T09:39:07;98320.13;;;10.05;60.63
8573;BME280;4324;42.012;24.872;2023-03-16T09:41:46;98302.31;;;9.99;60.11
8573;BME280;4324;42.012;24.872;2023-03-16T09:44:31;98304.53;;;10.10;60.59
8573;BME280;4324;42.012;24.872;2023-03-16T09:47:04;98300.34;;;10.16;60.19
8573;BME280;4324;42.012;24.872;2023-03-16T09:49:35;98321.03;;;10.35;59.53
8573;BME280;4324;42.012;24.872;2023-03-16T09:52:11;98317.16;;;10.38;59.52
8573;BME280;4324;42.012;24.872;2023-03-16T09:54:48;98330.16;;;10.48;60.12
8573;BME280;4324;42.012;24.872;2023-03-16T09:57:25;98319.31;;;10.57;60.64
8573;BME280;4324;42.012;24.872;2023-03-16T10:00:04;98316.38;;;10.52;59.12
8573;BME280;4324;42.012;24.872;2023-03-16T10:02:49;98316.00;;;10.55;58.57
8573;BME280;4324;42.012;24.872;2023-03-16T10:05:23;98273.84;;;10.39;58.06
8573;BME280;4324;42.012;24.872;2023-03-16T10:08:00;98323.59;;;10.73;57.96
8573;BME280;4324;42.012;24.872;2023-03-16T10:10:57;98281.34;;;10.50;59.42
8573;BME280;4324;42.012;24.872;2023-03-16T10:13:35;98329.59;;;10.82;60.30
8573;BME280;4324;42.012;24.872;2023-03-16T10:16:19;98319.00;;;10.82;61.02
8573;BME280;4324;42.012;24.872;2023-03-16T10:18:56;98321.38;;;10.92;60.82
8573;BME280;4324;42.012;24.872;2023-03-16T10:21:38;98324.13;;;10.98;60.27
8573;BME280;4324;42.012;24.872;2023-03-16T10:24:20;98310.66;;;11.00;59.58
8573;BME280;4324;42.012;24.872;2023-03-16T10:26:55;98285.78;;;10.79;59.52
8573;BME280;4324;42.012;24.872;2023-03-16T10:29:35;98295.13;;;11.11;60.36
8573;BME280;4324;42.012;24.872;2023-03-16T10:32:17;98311.25;;;11.31;59.52
8573;BME280;4324;42.012;24.872;2023-03-16T10:34:59;98261.16;;;11.00;58.81
8573;BME280;4324;42.012;24.872;2023-03-16T10:37:39;98279.22;;;11.11;57.50
8573;BME280;4324;42.012;24.872;2023-03-16T10:40:21;98275.81;;;11.18;57.61
8573;BME280;4324;42.012;24.872;2023-03-16T10:42:48;98322.06;;;11.51;58.26
8573;BME280;4324;42.012;24.872;2023-03-16T10:45:26;98244.53;;;11.06;58.48
8573;BME280;4324;42.012;24.872;2023-03-16T10:48:06;98295.34;;;11.53;58.79
8573;BME280;4324;42.012;24.872;2023-03-16T10:50:34;98310.94;;;11.62;57.49
8573;BME280;4324;42.012;24.872;2023-03-16T10:53:02;98306.66;;;11.61;57.11
8573;BME280;4324;42.012;24.872;2023-03-16T10:55:30;98276.41;;;11.56;57.10
8573;BME280;4324;42.012;24.872;2023-03-16T10:58:00;98311.25;;;11.74;57.31
8573;BME280;4324;42.012;24.872;2023-03-16T11:00:29;98298.19;;;11.73;58.15
8573;BME280;4324;42.012;24.872;2023-03-16T11:03:01;98294.72;;;11.72;56.49
8573;BME280;4324;42.012;24.872;2023-03-16T11:05:40;98287.44;;;11.81;56.49
8573;BME280;4324;42.012;24.872;2023-03-16T11:08:11;98305.38;;;12.00;57.19
8573;BME280;4324;42.012;24.872;2023-03-16T11:10:41;98295.25;;;12.10;58.18
8573;BME280;4324;42.012;24.872;2023-03-16T11:13:13;98284.00;;;12.08;56.82
8573;BME280;4324;42.012;24.872;2023-03-16T11:15:46;98301.81;;;12.15;55.64
8573;BME280;4324;42.012;24.872;2023-03-16T11:18:25;98272.13;;;12.04;54.73
8573;BME280;4324;42.012;24.872;2023-03-16T11:20:55;98293.56;;;12.31;56.36
8573;BME280;4324;42.012;24.872;2023-03-16T11:23:29;98282.16;;;12.37;58.24
8573;BME280;4324;42.012;24.872;2023-03-16T11:25:59;98280.97;;;12.40;59.11
8573;BME280;4324;42.012;24.872;2023-03-16T11:28:36;98288.22;;;12.59;57.58
8573;BME280;4324;42.012;24.872;2023-03-16T11:31:18;98265.91;;;12.47;58.11
8573;BME280;4324;42.012;24.872;2023-03-16T11:33:49;98241.53;;;12.37;57.31
8573;BME280;4324;42.012;24.872;2023-03-16T11:36:38;98289.06;;;12.66;57.36
8573;BME280;4324;42.012;24.872;2023-03-16T11:39:27;98275.06;;;12.44;56.52
8573;BME280;4324;42.012;24.872;2023-03-16T11:42:22;98274.19;;;12.37;54.53
8573;BME280;4324;42.012;24.872;2023-03-16T11:45:18;98262.66;;;12.17;55.94
8573;BME280;4324;42.012;24.872;2023-03-16T11:48:01;98299.94;;;12.37;55.37
8573;BME280;4324;42.012;24.872;2023-03-16T11:50:36;98284.38;;;12.33;56.61
8573;BME280;4324;42.012;24.872;2023-03-16T11:53:16;98282.00;;;12.45;55.80
8573;BME280;4324;42.012;24.872;2023-03-16T11:55:53;98283.22;;;12.43;55.63
8573;BME280;4324;42.012;24.872;2023-03-16T11:58:35;98295.91;;;12.47;54.26
8573;BME280;4324;42.012;24.872;2023-03-16T12:01:17;98299.72;;;12.38;54.21
8573;BME280;4324;42.012;24.872;2023-03-16T12:04:01;98295.38;;;12.24;53.62
8573;BME280;4324;42.012;24.872;2023-03-16T12:06:51;98310.00;;;12.20;53.27
8573;BME280;4324;42.012;24.872;2023-03-16T12:09:56;98313.31;;;12.22;53.45
8573;BME280;4324;42.012;24.872;2023-03-16T12:12:37;98275.38;;;12.00;53.72
8573;BME280;4324;42.012;24.872;2023-03-16T12:15:29;98335.72;;;12.13;53.60
8573;BME280;4324;42.012;24.872;2023-03-16T12:18:00;98308.72;;;12.09;53.83
8573;BME280;4324;42.012;24.872;2023-03-16T12:20:33;98300.28;;;11.99;53.47
8573;BME280;4324;42.012;24.872;2023-03-16T12:23:05;98290.63;;;11.91;53.63
8573;BME280;4324;42.012;24.872;2023-03-16T12:25:36;98313.69;;;11.91;53.34
8573;BME280;4324;42.012;24.872;2023-03-16T12:31:28;98303.63;;;11.65;53.87
8573;BME280;4324;42.012;24.872;2023-03-16T12:34:07;98313.22;;;11.66;54.39
8573;BME280;4324;42.012;24.872;2023-03-16T12:36:48;98326.34;;;11.74;53.81
8573;BME280;4324;42.012;24.872;2023-03-16T12:39:23;98317.63;;;11.58;53.34
8573;BME280;4324;42.012;24.872;2023-03-16T12:42:04;98318.53;;;11.66;53.38
8573;BME280;4324;42.012;24.872;2023-03-16T12:44:42;98334.16;;;11.60;53.15
8573;BME280;4324;42.012;24.872;2023-03-16T12:47:18;98321.41;;;11.49;52.58
8573;BME280;4324;42.012;24.872;2023-03-16T12:50:11;98339.28;;;11.62;53.10
8573;BME280;4324;42.012;24.872;2023-03-16T12:52:56;98281.81;;;11.26;53.90
8573;BME280;4324;42.012;24.872;2023-03-16T13:03:10;98319.00;;;11.33;53.55
8573;BME280;4324;42.012;24.872;2023-03-16T13:10:27;98356.31;;;11.53;53.55
8573;BME280;4324;42.012;24.872;2023-03-16T13:13:07;98324.38;;;11.03;53.69
8573;BME280;4324;42.012;24.872;2023-03-16T13:18:56;98361.41;;;11.33;53.45
8573;BME280;4324;42.012;24.872;2023-03-16T13:18:56;98361.78;;;11.30;53.32
8573;BME280;4324;42.012;24.872;2023-03-16T13:21:35;98347.38;;;11.18;53.16
8573;BME280;4324;42.012;24.872;2023-03-16T13:24:34;98349.75;;;11.12;53.54
8573;BME280;4324;42.012;24.872;2023-03-16T13:27:05;98368.81;;;11.23;54.89
8573;BME280;4324;42.012;24.872;2023-03-16T13:29:55;98346.28;;;10.97;55.13
8573;BME280;4324;42.012;24.872;2023-03-16T13:32:31;98383.66;;;11.17;54.50
8573;BME280;4324;42.012;24.872;2023-03-16T13:35:04;98378.38;;;11.02;54.43
8573;BME280;4324;42.012;24.872;2023-03-16T13:37:31;98286.06;;;10.40;54.93
8573;BME280;4324;42.012;24.872;2023-03-16T13:40:00;98382.75;;;10.95;55.59
8573;BME280;4324;42.012;24.872;2023-03-16T13:42:29;98392.63;;;10.86;55.91
8573;BME280;4324;42.012;24.872;2023-03-16T13:45:04;98359.38;;;10.69;55.80
8573;BME280;4324;42.012;24.872;2023-03-16T13:47:33;98362.66;;;10.71;57.68
8573;BME280;4324;42.012;24.872;2023-03-16T13:50:02;98384.38;;;10.81;56.21
8573;BME280;4324;42.012;24.872;2023-03-16T13:52:30;98380.09;;;10.65;55.79
8573;BME280;4324;42.012;24.872;2023-03-16T13:55:00;98396.81;;;10.81;55.73